Time;durP1;ratioP1;P1;durP2;ratioP2;P2;SDS_P1;SDS_P2;PMS_P1;PMS_P2;Temp;Humidity;BMP_temperature;BMP_pressure;BME280_temperature;BME280_humidity;BME280_pressure;Samples;Min_cycle;Max_cycle;Signal;HPM_P1;HPM_P2
2022/04/05 00:01:19;;;;;;;10.27;6.13;;;;;;;;;;5052059;28;20116;-73
2022/04/05 00:03:45;;;;;;;11.93;5.95;;;;;;;;;;5033532;28;20434;-73
2022/04/05 00:06:10;;;;;;;10.23;6.50;;;;;;;;;;5051796;28;20091;-73
2022/04/05 00:08:36;;;;;;;10.65;6.55;;;;;;;;;;5051855;28;20147;-73
2022/04/05 00:11:02;;;;;;;10.15;5.85;;;;;;;;;;5051863;28;20060;-73
2022/04/05 00:13:28;;;;;;;9.55;6.03;;;;;;;;;;5051672;28;20111;-73
2022/04/05 00:15:54;;;;;;;10.50;6.05;;;;;;;;;;5051728;28;20028;-73
2022/04/05 00:18:20;;;;;;;9.73;5.55;;;;;;;;;;5051779;28;20052;-73
2022/04/05 00:20:46;;;;;;;9.23;5.53;;;;;;;;;;5051781;28;20090;-73
2022/04/05 00:23:12;;;;;;;7.75;5.72;;;;;;;;;;5052304;28;20033;-73
2022/04/05 00:25:38;;;;;;;7.82;5.65;;;;;;;;;;5034521;28;20442;-73
2022/04/05 00:28:04;;;;;;;8.88;5.43;;;;;;;;;;5052604;28;20032;-73
2022/04/05 00:30:30;;;;;;;11.80;6.68;;;;;;;;;;5052243;28;20025;-75
2022/04/05 00:32:56;;;;;;;8.85;5.28;;;;;;;;;;5051208;28;20048;-73
2022/04/05 00:35:23;;;;;;;8.82;5.18;;;;;;;;;;5051137;28;20033;-73
2022/04/05 00:37:49;;;;;;;8.20;5.38;;;;;;;;;;5051246;28;20032;-73
2022/04/05 00:40:15;;;;;;;10.48;6.05;;;;;;;;;;5035275;28;20035;-74
2022/04/05 00:42:41;;;;;;;8.25;5.40;;;;;;;;;;5032413;28;20638;-73
2022/04/05 00:45:09;;;;;;;11.23;5.60;;;;;;;;;;5032779;28;20039;-73
2022/04/05 00:47:36;;;;;;;13.07;5.97;;;;;;;;;;5034579;28;20033;-73
2022/04/05 00:50:03;;;;;;;8.48;5.25;;;;;;;;;;5035000;28;20032;-72
2022/04/05 00:52:29;;;;;;;9.88;5.63;;;;;;;;;;5033403;28;20030;-73
2022/04/05 00:54:57;;;;;;;8.25;5.80;;;;;;;;;;5034462;28;20064;-72
2022/04/05 00:57:24;;;;;;;8.95;5.80;;;;;;;;;;5035776;28;20040;-72
2022/04/05 00:59:55;;;;;;;9.32;5.88;;;;;;;;;;5036898;28;20493;-72
2022/04/05 01:02:27;;;;;;;9.88;5.63;;;;;;;;;;5033832;28;20033;-72
2022/04/05 01:04:54;;;;;;;11.35;5.63;;;;;;;;;;5032965;28;20030;-72
2022/04/05 01:07:24;;;;;;;13.50;5.97;;;;;;;;;;5032493;28;20040;-73
2022/04/05 01:09:53;;;;;;;9.63;5.85;;;;;;;;;;5032677;28;20028;-73
2022/04/05 01:12:21;;;;;;;10.05;5.53;;;;;;;;;;5033960;28;20024;-72
2022/04/05 01:14:47;;;;;;;9.50;5.60;;;;;;;;;;5031504;28;20025;-72
2022/04/05 01:17:13;;;;;;;10.40;5.60;;;;;;;;;;5031515;28;20033;-73
2022/04/05 01:19:39;;;;;;;7.85;5.50;;;;;;;;;;5032863;28;20036;-73
2022/04/05 01:22:05;;;;;;;8.30;5.82;;;;;;;;;;5032967;28;20033;-73
2022/04/05 01:24:32;;;;;;;10.25;6.30;;;;;;;;;;5034616;28;20502;-73
2022/04/05 01:27:01;;;;;;;9.00;5.97;;;;;;;;;;5037892;28;20032;-73
2022/04/05 01:29:27;;;;;;;8.07;4.80;;;;;;;;;;5033216;28;20025;-73
2022/04/05 01:31:56;;;;;;;8.30;5.43;;;;;;;;;;5032232;28;20033;-73
2022/04/05 01:34:24;;;;;;;8.27;5.47;;;;;;;;;;5032153;28;20030;-73
2022/04/05 01:36:55;;;;;;;13.30;7.25;;;;;;;;;;5014465;28;20041;-73
2022/04/05 01:39:23;;;;;;;10.63;6.43;;;;;;;;;;5023649;28;20039;-73
2022/04/05 01:42:13;;;;;;;9.63;6.28;;;;;;;;;;5053044;28;20037;-73
2022/04/05 01:44:40;;;;;;;10.48;7.38;;;;;;;;;;5042333;28;20049;-72
2022/04/05 01:47:09;;;;;;;9.88;6.50;;;;;;;;;;5034413;28;20063;-72
2022/04/05 01:49:36;;;;;;;9.95;6.90;;;;;;;;;;5053038;28;20028;-72
2022/04/05 01:52:03;;;;;;;9.57;7.03;;;;;;;;;;5040428;28;20025;-73
2022/04/05 01:54:29;;;;;;;9.63;7.22;;;;;;;;;;5031704;28;20038;-73
2022/04/05 01:56:55;;;;;;;10.35;6.95;;;;;;;;;;5030303;28;20021;-73
2022/04/05 01:59:23;;;;;;;10.15;7.30;;;;;;;;;;5030211;28;20056;-73
2022/04/05 02:01:49;;;;;;;10.07;6.43;;;;;;;;;;5016646;28;20046;-73
2022/04/05 02:04:16;;;;;;;8.88;6.57;;;;;;;;;;5035158;28;20104;-72
2022/04/05 02:06:43;;;;;;;10.90;7.10;;;;;;;;;;5035819;28;20497;-72
2022/04/05 02:09:11;;;;;;;8.52;6.78;;;;;;;;;;5035199;28;20048;-72
2022/04/05 02:11:37;;;;;;;9.63;6.25;;;;;;;;;;5034410;28;20055;-72
2022/04/05 02:14:03;;;;;;;9.27;6.93;;;;;;;;;;5016806;28;20371;-73
2022/04/05 02:16:29;;;;;;;11.95;6.80;;;;;;;;;;5034827;28;20025;-72
2022/04/05 02:18:55;;;;;;;9.65;7.10;;;;;;;;;;5033910;28;20461;-73
2022/04/05 02:21:22;;;;;;;11.40;7.25;;;;;;;;;;5034660;28;20079;-73
2022/04/05 02:23:48;;;;;;;10.20;6.85;;;;;;;;;;5034205;28;20037;-72
2022/04/05 02:26:13;;;;;;;11.25;6.70;;;;;;;;;;5033406;28;20053;-72
2022/04/05 02:28:42;;;;;;;12.52;6.93;;;;;;;;;;5033128;28;20049;-72
2022/04/05 02:31:08;;;;;;;9.30;6.57;;;;;;;;;;5032986;28;20021;-71
2022/04/05 02:33:35;;;;;;;10.25;6.93;;;;;;;;;;5032753;28;20021;-71
2022/04/05 02:36:03;;;;;;;9.73;6.15;;;;;;;;;;5033259;28;20040;-72
2022/04/05 02:38:30;;;;;;;9.40;5.88;;;;;;;;;;5034293;28;20036;-72
2022/04/05 02:40:57;;;;;;;9.55;5.97;;;;;;;;;;5054332;28;20029;-72
2022/04/05 02:43:24;;;;;;;9.90;6.55;;;;;;;;;;5053560;28;20033;-71
2022/04/05 02:45:49;;;;;;;9.77;6.15;;;;;;;;;;5052842;28;20029;-72
2022/04/05 02:48:16;;;;;;;9.82;6.45;;;;;;;;;;5031187;28;20036;-71
2022/04/05 02:50:42;;;;;;;8.48;6.07;;;;;;;;;;5031920;28;20044;-73
2022/04/05 02:53:08;;;;;;;9.38;6.25;;;;;;;;;;5049232;28;20021;-72
2022/04/05 02:55:34;;;;;;;8.93;5.90;;;;;;;;;;5049174;28;20087;-72
2022/04/05 02:57:59;;;;;;;8.02;5.70;;;;;;;;;;5049218;28;20068;-73
2022/04/05 03:00:27;;;;;;;7.63;5.78;;;;;;;;;;5049542;28;20032;-72
2022/04/05 03:02:53;;;;;;;8.07;5.57;;;;;;;;;;5048352;28;20485;-73
2022/04/05 03:05:21;;;;;;;9.90;5.72;;;;;;;;;;5011019;28;20041;-73
2022/04/05 03:07:47;;;;;;;8.30;5.35;;;;;;;;;;5011270;28;20044;-73
2022/04/05 03:10:13;;;;;;;8.98;5.75;;;;;;;;;;5029345;28;20407;-72
2022/04/05 03:12:39;;;;;;;7.70;5.50;;;;;;;;;;5029357;28;20067;-73
2022/04/05 03:15:07;;;;;;;8.88;6.50;;;;;;;;;;5031818;28;20506;-72
2022/04/05 03:17:34;;;;;;;7.95;5.25;;;;;;;;;;5029433;28;20025;-74
2022/04/05 03:20:01;;;;;;;13.00;8.68;;;;;;;;;;5029230;28;20025;-73
2022/04/05 03:22:27;;;;;;;7.93;5.00;;;;;;;;;;5031423;28;20037;-72
2022/04/05 03:24:53;;;;;;;6.13;4.45;;;;;;;;;;5032582;28;20057;-72
2022/04/05 03:27:19;;;;;;;7.55;4.75;;;;;;;;;;5035196;28;20040;-72
2022/04/05 03:29:45;;;;;;;7.78;4.50;;;;;;;;;;5032707;28;20449;-73
2022/04/05 03:32:11;;;;;;;6.28;4.20;;;;;;;;;;5032836;28;20030;-73
2022/04/05 03:34:40;;;;;;;7.38;4.40;;;;;;;;;;5032778;28;20028;-73
2022/04/05 03:37:06;;;;;;;7.32;4.22;;;;;;;;;;5014629;28;20044;-72
2022/04/05 03:39:32;;;;;;;6.50;4.20;;;;;;;;;;5042541;28;20100;-74
2022/04/05 03:41:58;;;;;;;5.88;4.10;;;;;;;;;;5052458;28;20032;-73
2022/04/05 03:44:28;;;;;;;5.80;3.50;;;;;;;;;;5052336;28;20036;-73
2022/04/05 03:46:56;;;;;;;5.97;3.78;;;;;;;;;;5052343;28;20035;-74
2022/04/05 03:49:22;;;;;;;7.13;3.97;;;;;;;;;;5052367;28;20048;-72
2022/04/05 03:51:48;;;;;;;6.45;3.72;;;;;;;;;;5052322;28;20096;-73
2022/04/05 03:54:14;;;;;;;6.57;3.85;;;;;;;;;;5026874;28;20125;-73
2022/04/05 03:56:40;;;;;;;5.22;3.38;;;;;;;;;;5032267;28;20061;-73
2022/04/05 03:59:06;;;;;;;5.38;3.63;;;;;;;;;;5032094;28;20032;-73
2022/04/05 04:01:32;;;;;;;8.50;4.38;;;;;;;;;;5032224;28;20123;-72
2022/04/05 04:03:57;;;;;;;5.53;3.53;;;;;;;;;;5032177;28;20061;-73
2022/04/05 04:06:23;;;;;;;5.93;4.22;;;;;;;;;;5011717;28;20072;-72
2022/04/05 04:08:49;;;;;;;7.40;3.97;;;;;;;;;;5031799;28;20494;-73
2022/04/05 04:11:15;;;;;;;5.82;3.75;;;;;;;;;;5031939;28;20045;-73
2022/04/05 04:13:41;;;;;;;6.45;4.00;;;;;;;;;;5031470;28;20056;-73
2022/04/05 04:16:07;;;;;;;8.55;5.53;;;;;;;;;;5031862;28;20045;-73
2022/04/05 04:18:33;;;;;;;9.80;7.05;;;;;;;;;;5031578;28;20642;-72
2022/04/05 04:20:58;;;;;;;7.72;6.22;;;;;;;;;;5031514;28;20026;-73
2022/04/05 04:23:24;;;;;;;9.15;5.30;;;;;;;;;;5031337;28;20037;-72
2022/04/05 04:25:50;;;;;;;7.85;5.50;;;;;;;;;;5031494;28;20536;-72
2022/04/05 04:28:16;;;;;;;7.47;5.55;;;;;;;;;;5031309;28;20088;-72
2022/04/05 04:30:42;;;;;;;7.80;5.68;;;;;;;;;;5031114;28;20498;-72
2022/04/05 04:33:08;;;;;;;8.63;5.05;;;;;;;;;;5011961;28;20044;-72
2022/04/05 04:35:37;;;;;;;7.47;5.18;;;;;;;;;;5030264;28;20522;-72
2022/04/05 04:38:03;;;;;;;10.07;6.15;;;;;;;;;;5028271;28;20029;-72
2022/04/05 04:40:29;;;;;;;7.95;5.20;;;;;;;;;;5033382;28;20521;-72
2022/04/05 04:42:55;;;;;;;7.72;5.10;;;;;;;;;;5030710;28;20025;-73
2022/04/05 04:45:26;;;;;;;7.45;5.20;;;;;;;;;;5012042;28;20359;-73
2022/04/05 04:47:52;;;;;;;7.25;4.90;;;;;;;;;;5012403;28;20041;-73
2022/04/05 04:50:18;;;;;;;7.47;5.18;;;;;;;;;;5030461;28;20037;-72
2022/04/05 04:52:43;;;;;;;7.65;4.90;;;;;;;;;;5030373;28;20071;-72
2022/04/05 04:55:09;;;;;;;8.02;5.13;;;;;;;;;;5008144;28;20069;-73
2022/04/05 04:57:35;;;;;;;7.97;4.90;;;;;;;;;;5017918;28;20421;-73
2022/04/05 05:00:02;;;;;;;6.65;4.78;;;;;;;;;;5031349;28;20029;-74
2022/04/05 05:02:28;;;;;;;7.13;4.82;;;;;;;;;;5030459;28;20478;-73
2022/04/05 05:04:54;;;;;;;8.55;5.20;;;;;;;;;;5030103;28;20060;-72
2022/04/05 05:07:20;;;;;;;8.07;4.95;;;;;;;;;;5030149;28;20545;-72
2022/04/05 05:09:45;;;;;;;6.97;4.80;;;;;;;;;;5030589;28;20025;-72
2022/04/05 05:12:11;;;;;;;7.38;5.15;;;;;;;;;;5032031;28;20478;-71
2022/04/05 05:14:38;;;;;;;7.25;4.80;;;;;;;;;;5030186;28;20506;-72
2022/04/05 05:17:05;;;;;;;8.32;5.43;;;;;;;;;;5030620;28;20482;-72
2022/04/05 05:19:31;;;;;;;8.05;5.35;;;;;;;;;;5044285;28;20055;-72
2022/04/05 05:21:57;;;;;;;7.32;5.13;;;;;;;;;;5030087;28;20025;-71
2022/04/05 05:24:23;;;;;;;7.03;4.93;;;;;;;;;;5029845;28;20443;-72
2022/04/05 05:26:48;;;;;;;8.32;5.60;;;;;;;;;;5029854;28;20037;-74
2022/04/05 05:29:17;;;;;;;7.40;5.15;;;;;;;;;;5012995;28;20066;-72
2022/04/05 05:31:43;;;;;;;7.32;5.18;;;;;;;;;;5030367;28;20041;-73
2022/04/05 05:34:09;;;;;;;9.07;5.70;;;;;;;;;;5029331;28;20025;-72
2022/04/05 05:36:35;;;;;;;16.25;10.68;;;;;;;;;;5034033;28;20025;-71
2022/04/05 05:39:01;;;;;;;8.43;5.60;;;;;;;;;;5020152;28;20686;-72
2022/04/05 05:41:26;;;;;;;10.65;5.93;;;;;;;;;;5031338;28;20033;-71
2022/04/05 05:43:52;;;;;;;8.77;5.32;;;;;;;;;;5029204;28;20060;-73
2022/04/05 05:46:18;;;;;;;10.48;6.38;;;;;;;;;;5029536;28;20033;-73
2022/04/05 05:48:44;;;;;;;8.75;5.97;;;;;;;;;;5029287;28;20053;-73
2022/04/05 05:51:10;;;;;;;12.43;6.28;;;;;;;;;;5029557;28;20127;-73
2022/04/05 05:53:41;;;;;;;9.57;6.25;;;;;;;;;;5029556;28;20044;-73
2022/04/05 05:56:07;;;;;;;9.43;6.53;;;;;;;;;;5011278;28;20037;-73
2022/04/05 05:58:33;;;;;;;9.80;6.72;;;;;;;;;;5029405;28;20053;-73
2022/04/05 06:00:58;;;;;;;11.00;7.70;;;;;;;;;;5011790;28;20115;-72
2022/04/05 06:03:24;;;;;;;9.65;6.88;;;;;;;;;;5029314;28;20112;-73
2022/04/05 06:05:50;;;;;;;14.80;7.30;;;;;;;;;;5009235;28;20071;-72
2022/04/05 06:08:19;;;;;;;10.27;7.05;;;;;;;;;;5029318;28;20053;-72
2022/04/05 06:10:45;;;;;;;9.85;6.97;;;;;;;;;;5011436;28;20045;-72
2022/04/05 06:13:12;;;;;;;10.48;7.45;;;;;;;;;;5029635;28;20183;-71
2022/04/05 06:15:38;;;;;;;10.60;7.45;;;;;;;;;;5029629;28;20029;-72
2022/04/05 06:18:04;;;;;;;13.25;7.53;;;;;;;;;;5029619;28;20064;-72
2022/04/05 06:20:30;;;;;;;11.10;7.57;;;;;;;;;;5011624;28;20041;-73
2022/04/05 06:23:01;;;;;;;10.98;7.78;;;;;;;;;;5029629;28;20057;-72
2022/04/05 06:25:29;;;;;;;18.20;12.82;;;;;;;;;;5011148;28;20048;-72
2022/04/05 06:27:56;;;;;;;26.90;17.58;;;;;;;;;;5029316;28;20017;-72
2022/04/05 06:30:23;;;;;;;11.27;8.10;;;;;;;;;;5011210;28;20112;-73
2022/04/05 06:32:50;;;;;;;12.00;8.10;;;;;;;;;;5029579;28;20033;-72
2022/04/05 06:35:16;;;;;;;11.35;8.07;;;;;;;;;;5010254;28;20041;-72
2022/04/05 06:37:44;;;;;;;11.35;7.93;;;;;;;;;;5029026;28;20034;-73
2022/04/05 06:40:13;;;;;;;11.63;8.52;;;;;;;;;;5030846;28;20028;-71
2022/04/05 06:42:43;;;;;;;12.57;8.85;;;;;;;;;;5026307;28;20021;-73
2022/04/05 06:45:14;;;;;;;12.13;8.93;;;;;;;;;;5028830;28;20463;-72
2022/04/05 06:47:40;;;;;;;13.20;9.23;;;;;;;;;;5008220;28;20038;-72
2022/04/05 06:50:08;;;;;;;13.40;9.27;;;;;;;;;;5028421;28;20017;-72
2022/04/05 06:52:36;;;;;;;15.60;9.05;;;;;;;;;;5028476;28;20037;-71
2022/04/05 06:55:02;;;;;;;14.45;10.68;;;;;;;;;;5028693;28;20029;-73
2022/04/05 06:57:28;;;;;;;14.55;9.63;;;;;;;;;;5033269;28;20029;-74
2022/04/05 06:59:56;;;;;;;14.27;9.60;;;;;;;;;;5041610;28;20068;-73
2022/04/05 07:02:22;;;;;;;15.45;9.85;;;;;;;;;;5032712;28;20029;-72
2022/04/05 07:04:48;;;;;;;13.70;9.52;;;;;;;;;;5034536;28;20030;-72
2022/04/05 07:07:14;;;;;;;13.00;8.93;;;;;;;;;;5014491;28;20052;-71
2022/04/05 07:09:40;;;;;;;13.40;9.48;;;;;;;;;;5032788;28;20037;-71
2022/04/05 07:12:09;;;;;;;13.57;9.55;;;;;;;;;;5034496;28;20029;-71
2022/04/05 07:14:35;;;;;;;13.23;8.93;;;;;;;;;;5031229;28;20489;-72
2022/04/05 07:17:02;;;;;;;14.68;9.27;;;;;;;;;;5030643;28;20042;-73
2022/04/05 07:19:28;;;;;;;15.80;10.93;;;;;;;;;;5030946;28;20033;-72
2022/04/05 07:21:54;;;;;;;18.83;12.88;;;;;;;;;;5030949;28;20140;-72
2022/04/05 07:24:20;;;;;;;14.45;9.73;;;;;;;;;;5031028;28;20413;-72
2022/04/05 07:26:46;;;;;;;11.27;7.70;;;;;;;;;;5030915;28;20041;-72
2022/04/05 07:29:12;;;;;;;12.13;8.35;;;;;;;;;;5031347;28;20044;-73
2022/04/05 07:31:38;;;;;;;11.55;7.45;;;;;;;;;;5032192;28;20147;-72
2022/04/05 07:34:05;;;;;;;10.32;7.28;;;;;;;;;;5032070;28;20032;-71
2022/04/05 07:36:31;;;;;;;12.65;7.40;;;;;;;;;;5014039;28;20038;-72
2022/04/05 07:38:57;;;;;;;12.30;7.18;;;;;;;;;;5036034;28;20456;-73
2022/04/05 07:41:23;;;;;;;10.95;6.60;;;;;;;;;;5032218;28;20087;-74
2022/04/05 07:43:49;;;;;;;9.95;6.75;;;;;;;;;;5031589;28;20041;-74
2022/04/05 07:46:15;;;;;;;9.80;6.57;;;;;;;;;;5013643;28;20052;-74
2022/04/05 07:48:41;;;;;;;7.88;5.40;;;;;;;;;;5025460;28;20059;-72
2022/04/05 07:51:07;;;;;;;8.70;6.05;;;;;;;;;;5029396;28;20120;-74
2022/04/05 07:53:33;;;;;;;7.38;5.00;;;;;;;;;;5010856;28;20041;-72
2022/04/05 07:55:59;;;;;;;8.68;5.55;;;;;;;;;;5028381;28;20036;-74
2022/04/05 07:58:25;;;;;;;10.82;7.57;;;;;;;;;;5029085;28;20379;-73
2022/04/05 08:00:52;;;;;;;10.18;6.60;;;;;;;;;;5028802;28;20417;-74
2022/04/05 08:03:18;;;;;;;8.77;6.03;;;;;;;;;;5010671;28;20347;-73
2022/04/05 08:05:44;;;;;;;9.27;5.85;;;;;;;;;;5029141;28;20041;-74
2022/04/05 08:08:10;;;;;;;7.82;5.10;;;;;;;;;;5010341;28;20038;-73
2022/04/05 08:10:36;;;;;;;7.22;4.43;;;;;;;;;;5029750;28;20037;-73
2022/04/05 08:13:03;;;;;;;6.40;3.85;;;;;;;;;;5029633;28;20104;-72
2022/04/05 08:15:29;;;;;;;5.60;4.03;;;;;;;;;;5029403;28;20029;-74
2022/04/05 08:17:55;;;;;;;7.85;4.60;;;;;;;;;;5031312;28;20037;-75
2022/04/05 08:20:21;;;;;;;6.22;4.00;;;;;;;;;;5032641;28;20074;-73
2022/04/05 08:22:47;;;;;;;6.10;3.95;;;;;;;;;;5011068;28;20087;-72
2022/04/05 08:25:15;;;;;;;5.95;3.88;;;;;;;;;;5029520;28;20465;-73
2022/04/05 08:27:43;;;;;;;5.65;3.80;;;;;;;;;;5030483;28;20025;-72
2022/04/05 08:30:10;;;;;;;6.25;3.85;;;;;;;;;;5030344;28;20025;-73
2022/04/05 08:32:42;;;;;;;6.07;3.95;;;;;;;;;;5029955;28;20592;-74
2022/04/05 08:35:11;;;;;;;6.05;3.83;;;;;;;;;;5030514;28;20028;-73
2022/04/05 08:37:39;;;;;;;6.00;3.92;;;;;;;;;;5031095;28;20034;-73
2022/04/05 08:40:09;;;;;;;5.47;3.50;;;;;;;;;;5035397;28;20037;-74
2022/04/05 08:42:41;;;;;;;5.40;3.40;;;;;;;;;;5030968;28;20029;-74
2022/04/05 08:45:10;;;;;;;5.07;3.20;;;;;;;;;;5030835;28;20037;-74
2022/04/05 08:47:48;;;;;;;6.00;3.63;;;;;;;;;;5031089;28;20028;-73
2022/04/05 08:50:16;;;;;;;5.20;3.42;;;;;;;;;;5030842;28;20052;-74
2022/04/05 08:52:43;;;;;;;5.28;3.60;;;;;;;;;;5034614;28;20051;-73
2022/04/05 08:55:10;;;;;;;5.22;3.38;;;;;;;;;;5031293;28;20127;-73
2022/04/05 08:57:36;;;;;;;19.90;11.63;;;;;;;;;;5030358;28;20029;-73
2022/04/05 09:00:07;;;;;;;5.20;3.00;;;;;;;;;;5029601;28;20091;-74
2022/04/05 09:02:34;;;;;;;14.25;8.10;;;;;;;;;;5029627;28;20514;-74
2022/04/05 09:05:00;;;;;;;5.90;3.53;;;;;;;;;;5030108;28;20057;-75
2022/04/05 09:07:31;;;;;;;4.90;2.92;;;;;;;;;;5030227;28;20028;-74
2022/04/05 09:10:06;;;;;;;;;;;;;;;;;;5031914;28;20037;-74
2022/04/05 09:12:41;;;;;;;4.32;2.70;;;;;;;;;;5030386;28;19909;-74
2022/04/05 09:15:23;;;;;;;4.65;3.00;;;;;;;;;;5018048;28;20033;-74
2022/04/05 09:17:50;;;;;;;5.32;3.00;;;;;;;;;;5030455;28;20164;-74
2022/04/05 09:20:18;;;;;;;4.82;2.80;;;;;;;;;;5030407;28;20501;-74
2022/04/05 09:22:44;;;;;;;5.05;2.75;;;;;;;;;;5030158;28;20033;-74
2022/04/05 09:25:13;;;;;;;4.22;2.58;;;;;;;;;;5029563;28;20044;-74
2022/04/05 09:27:57;;;;;;;4.55;2.60;;;;;;;;;;5029807;28;20044;-74
2022/04/05 09:30:29;;;;;;;3.65;2.60;;;;;;;;;;5030009;28;20128;-73
2022/04/05 09:32:56;;;;;;;3.70;2.38;;;;;;;;;;5029905;28;20048;-77
2022/04/05 09:35:27;;;;;;;4.18;2.60;;;;;;;;;;5029868;28;20021;-75
2022/04/05 09:38:16;;;;;;;4.45;2.70;;;;;;;;;;5029115;28;20036;-73
2022/04/05 09:40:42;;;;;;;4.07;2.60;;;;;;;;;;5030141;28;20135;-76
2022/04/05 09:43:15;;;;;;;3.75;2.50;;;;;;;;;;5011180;28;20041;-74
2022/04/05 09:46:00;;;;;;;4.25;2.60;;;;;;;;;;5029298;28;20052;-74
2022/04/05 09:48:29;;;;;;;4.10;2.53;;;;;;;;;;5029780;28;20044;-74
2022/04/05 09:51:11;;;;;;;3.72;2.47;;;;;;;;;;5029590;28;20474;-74
2022/04/05 09:53:54;;;;;;;5.70;3.90;;;;;;;;;;5029673;28;20077;-74
2022/04/05 09:56:22;;;;;;;6.32;3.05;;;;;;;;;;5029706;28;20029;-75
2022/04/05 09:58:53;;;;;;;3.55;2.42;;;;;;;;;;5029628;28;20029;-75
2022/04/05 10:01:26;;;;;;;2.88;1.95;;;;;;;;;;5014150;28;20013;-74
2022/04/05 10:04:08;;;;;;;2.90;2.00;;;;;;;;;;5029775;28;20025;-75
2022/04/05 10:06:38;;;;;;;3.17;2.17;;;;;;;;;;5011682;28;20041;-75
2022/04/05 10:09:05;;;;;;;2.50;2.00;;;;;;;;;;5027855;28;20475;-76
2022/04/05 10:11:37;;;;;;;2.28;1.70;;;;;;;;;;5010328;28;20033;-75
2022/04/05 10:14:03;;;;;;;3.08;2.17;;;;;;;;;;5028823;28;20021;-74
2022/04/05 10:16:31;;;;;;;3.08;2.08;;;;;;;;;;5010921;28;20521;-75
2022/04/05 10:18:59;;;;;;;3.78;1.90;;;;;;;;;;5028275;28;20032;-75
2022/04/05 10:21:27;;;;;;;2.75;2.08;;;;;;;;;;5029995;28;20378;-75
2022/04/05 10:23:55;;;;;;;2.97;2.03;;;;;;;;;;5026050;28;20029;-76
2022/04/05 10:26:27;;;;;;;2.92;2.10;;;;;;;;;;5027746;28;20550;-75
2022/04/05 10:28:56;;;;;;;3.15;1.95;;;;;;;;;;5029043;28;20037;-75
2022/04/05 10:31:29;;;;;;;2.55;2.00;;;;;;;;;;5030508;28;20505;-74
2022/04/05 10:34:06;;;;;;;3.60;2.20;;;;;;;;;;5029411;28;20052;-73
2022/04/05 10:36:32;;;;;;;10.93;7.63;;;;;;;;;;5032587;28;20026;-74
2022/04/05 10:39:18;;;;;;;6.20;4.45;;;;;;;;;;5033525;28;20476;-75
2022/04/05 10:42:06;;;;;;;3.10;1.95;;;;;;;;;;5028304;28;20040;-74
2022/04/05 10:44:46;;;;;;;3.00;2.00;;;;;;;;;;5034157;28;20650;-73
2022/04/05 10:47:12;;;;;;;2.40;1.88;;;;;;;;;;5008765;28;20048;-75
2022/04/05 10:49:47;;;;;;;2.42;1.90;;;;;;;;;;5033712;28;20033;-75
2022/04/05 10:52:27;;;;;;;3.35;2.08;;;;;;;;;;5032660;28;20307;-68
2022/04/05 10:55:12;;;;;;;2.60;1.95;;;;;;;;;;5032677;28;20021;-69
2022/04/05 10:57:39;;;;;;;2.80;2.03;;;;;;;;;;5033085;28;20036;-71
2022/04/05 11:00:22;;;;;;;3.75;2.03;;;;;;;;;;5032681;28;20052;-74
2022/04/05 11:02:51;;;;;;;3.08;2.00;;;;;;;;;;5032596;28;20033;-74
2022/04/05 11:05:18;;;;;;;2.67;1.95;;;;;;;;;;5033011;28;20494;-74
2022/04/05 11:07:53;;;;;;;2.47;1.90;;;;;;;;;;5014782;28;20375;-75
2022/04/05 11:10:20;;;;;;;3.28;2.30;;;;;;;;;;5032560;28;20037;-75
2022/04/05 11:12:47;;;;;;;3.03;2.15;;;;;;;;;;5014012;28;20033;-73
2022/04/05 11:15:16;;;;;;;2.80;2.10;;;;;;;;;;5032067;28;20021;-75
2022/04/05 11:17:42;;;;;;;3.53;2.30;;;;;;;;;;5043237;28;20060;-65
2022/04/05 11:20:11;;;;;;;3.50;2.33;;;;;;;;;;5029490;28;20036;-74
2022/04/05 11:22:39;;;;;;;4.15;2.60;;;;;;;;;;5032602;28;20382;-73
2022/04/05 11:25:09;;;;;;;4.32;2.40;;;;;;;;;;5034549;28;20466;-69
2022/04/05 11:27:48;;;;;;;4.30;2.63;;;;;;;;;;5031681;28;20684;-75
2022/04/05 11:30:25;;;;;;;4.97;2.67;;;;;;;;;;5027359;28;20491;-69
2022/04/05 11:33:06;;;;;;;4.78;2.53;;;;;;;;;;5027995;28;20037;-67
2022/04/05 11:35:51;;;;;;;4.93;2.90;;;;;;;;;;5022862;28;20036;-68
2022/04/05 11:38:17;;;;;;;3.95;2.70;;;;;;;;;;5032013;28;20030;-68
2022/04/05 11:40:54;;;;;;;6.63;2.65;;;;;;;;;;5032402;28;20057;-73
2022/04/05 11:43:32;;;;;;;3.88;2.42;;;;;;;;;;5031483;28;20026;-74
2022/04/05 11:46:06;;;;;;;3.88;2.42;;;;;;;;;;5034684;28;20037;-74
2022/04/05 11:48:33;;;;;;;5.15;2.55;;;;;;;;;;5034066;28;20049;-74
2022/04/05 11:51:01;;;;;;;5.68;2.78;;;;;;;;;;5031941;28;20033;-73
2022/04/05 11:53:29;;;;;;;12.80;8.43;;;;;;;;;;5030963;28;20029;-75
2022/04/05 11:56:21;;;;;;;4.95;3.08;;;;;;;;;;5032165;28;20426;-71
2022/04/05 11:58:56;;;;;;;4.13;2.85;;;;;;;;;;5012876;28;20049;-73
2022/04/05 12:01:24;;;;;;;4.70;3.00;;;;;;;;;;5031270;28;20036;-68
2022/04/05 12:03:56;;;;;;;4.45;2.67;;;;;;;;;;5028730;28;20032;-73
2022/04/05 12:06:33;;;;;;;4.43;2.80;;;;;;;;;;5031486;28;20029;-73
2022/04/05 12:09:05;;;;;;;5.80;2.83;;;;;;;;;;5029330;28;20026;-73
2022/04/05 12:11:33;;;;;;;5.15;3.08;;;;;;;;;;5031208;28;20032;-73
2022/04/05 12:14:04;;;;;;;6.05;3.92;;;;;;;;;;5013195;28;20033;-74
2022/04/05 12:16:47;;;;;;;6.38;4.07;;;;;;;;;;5031347;28;20022;-65
2022/04/05 12:19:17;;;;;;;6.63;4.00;;;;;;;;;;5031179;28;20036;-68
2022/04/05 12:21:43;;;;;;;8.40;4.22;;;;;;;;;;5013244;28;20048;-70
2022/04/05 12:24:09;;;;;;;6.97;4.43;;;;;;;;;;5031041;28;20028;-70
2022/04/05 12:26:35;;;;;;;6.07;4.18;;;;;;;;;;5030642;28;20033;-70
2022/04/05 12:29:01;;;;;;;6.13;4.10;;;;;;;;;;5031827;28;20412;-73
2022/04/05 12:31:29;;;;;;;6.47;4.53;;;;;;;;;;5031846;28;20037;-73
2022/04/05 12:34:00;;;;;;;6.75;4.75;;;;;;;;;;5031616;28;20037;-73
2022/04/05 12:36:36;;;;;;;7.03;4.83;;;;;;;;;;5030958;28;20033;-71
2022/04/05 12:39:05;;;;;;;6.63;4.15;;;;;;;;;;5031467;28;20447;-68
2022/04/05 12:41:38;;;;;;;6.38;4.43;;;;;;;;;;5030023;28;20025;-74
2022/04/05 12:44:06;;;;;;;7.20;4.57;;;;;;;;;;5011793;28;20049;-74
2022/04/05 12:46:38;;;;;;;9.38;4.82;;;;;;;;;;5028263;28;20036;-73
2022/04/05 12:49:21;;;;;;;5.93;4.22;;;;;;;;;;5010560;28;20037;-72
2022/04/05 12:51:48;;;;;;;6.57;4.18;;;;;;;;;;5031973;28;20040;-73
2022/04/05 12:54:31;;;;;;;6.55;4.55;;;;;;;;;;5030734;28;20040;-72
2022/04/05 12:57:17;;;;;;;7.88;5.38;;;;;;;;;;5015351;28;20018;-74
2022/04/05 12:59:44;;;;;;;10.00;5.82;;;;;;;;;;5030797;28;20040;-74
2022/04/05 13:02:17;;;;;;;7.85;5.75;;;;;;;;;;5030052;28;20037;-73
2022/04/05 13:04:43;;;;;;;8.57;5.75;;;;;;;;;;5011946;28;20048;-74
2022/04/05 13:07:09;;;;;;;8.07;5.38;;;;;;;;;;5029907;28;20025;-74
2022/04/05 13:09:36;;;;;;;7.55;5.28;;;;;;;;;;5012451;28;20130;-74
2022/04/05 13:12:17;;;;;;;8.38;5.85;;;;;;;;;;5030590;28;20025;-74
2022/04/05 13:14:45;;;;;;;7.80;6.10;;;;;;;;;;5030494;28;20033;-73
2022/04/05 13:17:12;;;;;;;8.60;6.22;;;;;;;;;;5029981;28;20033;-75
2022/04/05 13:19:39;;;;;;;8.43;6.05;;;;;;;;;;5035592;28;20242;-75
2022/04/05 13:22:16;;;;;;;15.35;9.93;;;;;;;;;;5036209;28;20032;-74
2022/04/05 13:24:46;;;;;;;8.82;5.80;;;;;;;;;;5032741;28;20035;-74
2022/04/05 13:27:14;;;;;;;8.82;6.13;;;;;;;;;;5030223;28;20026;-74
2022/04/05 13:29:44;;;;;;;8.43;6.10;;;;;;;;;;5029665;28;20505;-73
2022/04/05 13:32:23;;;;;;;8.40;5.95;;;;;;;;;;5030877;28;20059;-74
2022/04/05 13:34:48;;;;;;;7.85;5.90;;;;;;;;;;5030047;28;20032;-74
2022/04/05 13:37:24;;;;;;;9.00;6.35;;;;;;;;;;5011979;28;20040;-74
2022/04/05 13:39:53;;;;;;;9.70;6.72;;;;;;;;;;5016819;28;20041;-73
2022/04/05 13:42:19;;;;;;;10.20;6.40;;;;;;;;;;5007903;28;20048;-73
2022/04/05 13:44:45;;;;;;;9.43;7.10;;;;;;;;;;5027089;28;20033;-72
2022/04/05 13:47:13;;;;;;;9.68;6.82;;;;;;;;;;5009516;28;20064;-73
2022/04/05 13:49:41;;;;;;;10.10;6.40;;;;;;;;;;5027459;28;20033;-74
2022/04/05 13:52:07;;;;;;;10.93;7.05;;;;;;;;;;5027431;28;20044;-73
2022/04/05 13:54:35;;;;;;;10.82;6.75;;;;;;;;;;5027007;28;20033;-74
2022/04/05 13:57:01;;;;;;;8.82;6.18;;;;;;;;;;5026496;28;20021;-75
2022/04/05 13:59:27;;;;;;;10.15;7.28;;;;;;;;;;5027856;28;20029;-74
2022/04/05 14:01:54;;;;;;;9.10;6.35;;;;;;;;;;5028134;28;20049;-75
2022/04/05 14:04:20;;;;;;;9.38;6.43;;;;;;;;;;5026313;28;20037;-74
2022/04/05 14:06:46;;;;;;;8.63;6.30;;;;;;;;;;5026605;28;20033;-75
2022/04/05 14:09:12;;;;;;;9.40;6.57;;;;;;;;;;5010006;28;20041;-74
2022/04/05 14:11:38;;;;;;;12.52;9.32;;;;;;;;;;5029086;28;20049;-75
2022/04/05 14:14:04;;;;;;;16.25;10.90;;;;;;;;;;5030235;28;20036;-78
2022/04/05 14:16:30;;;;;;;9.07;6.80;;;;;;;;;;5036421;28;20041;-75
2022/04/05 14:18:56;;;;;;;8.70;5.85;;;;;;;;;;5029763;28;20049;-75
2022/04/05 14:21:25;;;;;;;8.82;6.45;;;;;;;;;;5030316;28;20030;-79
2022/04/05 14:23:51;;;;;;;10.35;6.13;;;;;;;;;;5013315;28;20034;-90
2022/04/05 14:26:17;;;;;;;10.60;6.82;;;;;;;;;;5014069;28;20056;-82
2022/04/05 14:28:43;;;;;;;8.98;6.40;;;;;;;;;;5011068;28;20132;-83
2022/04/05 14:31:11;;;;;;;8.93;6.18;;;;;;;;;;5025766;28;21377;-85
2022/04/05 14:33:40;;;;;;;9.15;6.60;;;;;;;;;;5008718;28;20049;-84
2022/04/05 14:36:07;;;;;;;14.65;6.70;;;;;;;;;;5007450;28;20025;-75
2022/04/05 14:38:33;;;;;;;9.45;6.22;;;;;;;;;;5011891;28;20426;-76
2022/04/05 14:40:59;;;;;;;12.63;7.65;;;;;;;;;;5029974;28;20482;-78
2022/04/05 14:43:25;;;;;;;8.73;6.55;;;;;;;;;;5009968;28;20079;-76
2022/04/05 14:45:51;;;;;;;9.35;6.47;;;;;;;;;;5028141;28;20450;-77
2022/04/05 14:48:16;;;;;;;10.18;6.90;;;;;;;;;;5008641;28;20064;-78